Time;durP1;ratioP1;P1;durP2;ratioP2;P2;SDS_P1;SDS_P2;PMS_P1;PMS_P2;Temp;Humidity;BMP_temperature;BMP_pressure;BME280_temperature;BME280_humidity;BME280_pressure;Samples;Min_cycle;Max_cycle;Signal;HPM_P1;HPM_P2
2022/10/27 00:00:42;;;;;;;67.00;31.55;;;4.20;99.90;;;;;;5096784;28;20030;-86
2022/10/27 00:03:12;;;;;;;58.47;29.85;;;4.10;99.90;;;;;;5096919;28;20035;-86
2022/10/27 00:05:38;;;;;;;59.88;31.98;;;4.20;99.90;;;;;;5095471;28;20043;-77
2022/10/27 00:08:04;;;;;;;58.63;27.65;;;4.20;99.90;;;;;;5096686;28;20077;-77
2022/10/27 00:10:30;;;;;;;102.95;38.60;;;4.20;99.90;;;;;;5095208;28;20107;-77
2022/10/27 00:12:55;;;;;;;73.78;33.83;;;4.10;99.90;;;;;;5096730;28;20020;-77
2022/10/27 00:15:21;;;;;;;87.88;37.20;;;4.10;99.90;;;;;;5096580;28;20411;-78
2022/10/27 00:17:47;;;;;;;62.47;30.98;;;4.10;99.90;;;;;;5096507;28;20024;-77
2022/10/27 00:20:12;;;;;;;65.88;31.83;;;4.10;99.90;;;;;;5096479;28;20027;-87
2022/10/27 00:22:38;;;;;;;108.60;35.80;;;4.10;99.90;;;;;;5095054;28;20082;-76
2022/10/27 00:25:05;;;;;;;59.17;29.55;;;4.10;99.90;;;;;;5095132;28;20485;-76
2022/10/27 00:27:31;;;;;;;80.50;35.25;;;4.00;99.90;;;;;;5096542;28;20074;-77
2022/10/27 00:29:56;;;;;;;70.82;33.97;;;4.00;99.90;;;;;;5096221;28;20032;-84
2022/10/27 00:32:22;;;;;;;65.25;32.95;;;4.00;99.90;;;;;;5096289;28;20020;-85
2022/10/27 00:34:48;;;;;;;56.10;28.92;;;3.90;99.90;;;;;;5096168;28;20017;-76
2022/10/27 00:37:13;;;;;;;65.25;31.50;;;3.80;99.90;;;;;;5094931;28;20031;-76
2022/10/27 00:39:39;;;;;;;69.68;33.17;;;3.80;99.90;;;;;;5096159;28;20401;-87
2022/10/27 00:42:05;;;;;;;78.40;33.38;;;3.90;99.90;;;;;;5095819;28;20047;-85
2022/10/27 00:44:46;;;;;;;69.47;29.52;;;3.80;99.90;;;;;;5131822;27;20027;-87
2022/10/27 00:47:27;;;;;;;54.83;28.75;;;3.90;99.90;;;;;;5116417;28;20024;-77
2022/10/27 00:50:17;;;;;;;65.10;32.25;;;3.90;99.90;;;;;;5116488;28;20073;-77
2022/10/27 00:52:52;;;;;;;89.15;36.03;;;3.80;99.90;;;;;;5111169;28;20035;-86
2022/10/27 00:55:22;;;;;;;99.57;36.72;;;3.70;99.90;;;;;;5116160;28;20023;-87
2022/10/27 00:57:51;;;;;;;97.78;38.53;;;3.70;99.90;;;;;;5114946;28;20491;-86
2022/10/27 01:00:17;;;;;;;88.20;38.00;;;3.70;99.90;;;;;;5114661;28;20108;-86
2022/10/27 01:02:44;;;;;;;88.82;39.08;;;3.70;99.90;;;;;;5110806;28;20492;-77
2022/10/27 01:05:21;;;;;;;97.75;42.47;;;3.70;99.90;;;;;;5094231;28;20397;-85
2022/10/27 01:07:50;;;;;;;115.53;41.75;;;3.70;99.90;;;;;;5095636;28;20024;-77
2022/10/27 01:10:17;;;;;;;81.10;34.35;;;3.80;99.90;;;;;;5111165;28;20060;-77
2022/10/27 01:12:43;;;;;;;77.15;33.85;;;3.80;99.90;;;;;;5095445;28;20020;-85
2022/10/27 01:15:10;;;;;;;78.68;34.38;;;3.80;99.90;;;;;;5111028;28;20031;-86
2022/10/27 01:18:11;;;;;;;69.70;32.97;;;3.80;99.90;;;;;;5095289;28;20031;-77
2022/10/27 01:20:55;;;;;;;101.20;37.10;;;3.80;99.90;;;;;;5090783;28;20104;-87
2022/10/27 01:23:44;;;;;;;87.85;35.33;;;3.80;99.90;;;;;;5093982;28;20040;-76
2022/10/27 01:26:34;;;;;;;81.43;35.90;;;3.80;99.90;;;;;;5110878;28;20085;-77
2022/10/27 01:29:18;;;;;;;114.63;38.03;;;3.70;99.90;;;;;;5095287;28;20427;-86
2022/10/27 01:31:50;;;;;;;71.00;36.47;;;3.70;99.90;;;;;;5093625;28;20031;-77
2022/10/27 01:34:21;;;;;;;66.32;32.30;;;3.70;99.90;;;;;;5095099;28;20068;-86
2022/10/27 01:37:00;;;;;;;70.35;33.53;;;3.70;99.90;;;;;;5094907;28;20142;-85
2022/10/27 01:40:01;;;;;;;82.70;36.00;;;3.70;99.90;;;;;;5093605;28;20048;-85
2022/10/27 01:42:36;;;;;;;79.30;34.85;;;3.70;99.90;;;;;;5087529;28;20072;-85
2022/10/27 01:45:04;;;;;;;86.75;34.20;;;3.60;99.90;;;;;;5094780;28;20031;-85
2022/10/27 01:47:30;;;;;;;80.18;34.72;;;3.60;99.90;;;;;;5110455;28;20024;-85
2022/10/27 01:49:56;;;;;;;91.65;39.97;;;3.60;99.90;;;;;;5094687;28;20031;-77
2022/10/27 01:52:48;;;;;;;82.30;34.15;;;3.60;99.90;;;;;;5093443;28;20023;-77
2022/10/27 01:55:37;;;;;;;77.47;34.53;;;3.60;99.90;;;;;;5094665;28;20378;-87
2022/10/27 01:58:14;;;;;;;76.13;36.03;;;3.70;99.90;;;;;;5093406;28;20016;-77
2022/10/27 02:00:54;;;;;;;85.82;36.95;;;3.70;99.90;;;;;;5094278;28;20024;-86
2022/10/27 02:03:33;;;;;;;68.90;32.50;;;3.80;99.90;;;;;;5093035;28;20047;-87
2022/10/27 02:06:01;;;;;;;61.58;31.80;;;3.80;99.90;;;;;;5094537;28;20063;-87
2022/10/27 02:08:53;;;;;;;67.30;30.63;;;3.90;99.90;;;;;;5094494;28;20038;-77
2022/10/27 02:11:19;;;;;;;74.18;33.08;;;4.00;99.90;;;;;;5101983;28;20036;-77
2022/10/27 02:13:45;;;;;;;76.63;32.50;;;4.10;99.90;;;;;;5092676;28;20024;-77
2022/10/27 02:16:24;;;;;;;72.47;34.80;;;4.20;99.90;;;;;;5094344;28;20020;-86
2022/10/27 02:19:06;;;;;;;67.80;30.95;;;4.20;99.90;;;;;;5094306;28;20012;-76
2022/10/27 02:21:34;;;;;;;68.32;33.92;;;4.30;99.90;;;;;;5072611;28;20017;-85
2022/10/27 02:24:01;;;;;;;76.88;35.67;;;4.30;99.90;;;;;;5073853;28;20032;-85
2022/10/27 02:26:36;;;;;;;76.95;36.03;;;4.30;99.90;;;;;;5073731;28;20024;-85
2022/10/27 02:29:14;;;;;;;66.65;34.03;;;4.40;99.90;;;;;;5073762;28;20056;-85
2022/10/27 02:31:44;;;;;;;81.05;38.10;;;4.40;99.90;;;;;;5073742;28;20029;-77
2022/10/27 02:34:11;;;;;;;78.10;38.78;;;4.40;99.90;;;;;;5110298;27;20050;-85
2022/10/27 02:36:36;;;;;;;82.80;38.20;;;4.50;99.90;;;;;;5114225;28;20030;-77
2022/10/27 02:39:02;;;;;;;72.80;34.95;;;4.50;99.90;;;;;;5112785;28;20051;-77
2022/10/27 02:41:28;;;;;;;70.30;33.78;;;4.60;99.90;;;;;;5112782;28;20503;-85
2022/10/27 02:43:53;;;;;;;71.63;34.20;;;4.70;99.90;;;;;;5114130;28;20114;-86
2022/10/27 02:46:19;;;;;;;76.57;35.22;;;4.70;99.90;;;;;;5129833;27;20016;-77
2022/10/27 02:48:44;;;;;;;69.70;35.05;;;4.80;99.90;;;;;;5112776;28;20427;-77
2022/10/27 02:51:10;;;;;;;63.05;34.22;;;4.90;99.90;;;;;;5114009;28;20407;-77
2022/10/27 02:53:36;;;;;;;62.92;32.83;;;4.90;99.90;;;;;;5112742;28;20045;-78
2022/10/27 02:56:02;;;;;;;68.32;33.78;;;5.00;99.90;;;;;;5112745;28;20023;-85
2022/10/27 02:58:28;;;;;;;65.22;33.58;;;5.00;99.90;;;;;;5113799;28;20031;-87
2022/10/27 03:00:57;;;;;;;69.40;36.50;;;5.10;99.90;;;;;;5113864;28;20084;-88
2022/10/27 03:03:23;;;;;;;68.72;35.13;;;5.20;99.90;;;;;;5104181;28;20032;-76
2022/10/27 03:05:48;;;;;;;78.68;36.47;;;5.20;99.90;;;;;;5092239;28;20500;-87
2022/10/27 03:08:14;;;;;;;72.13;32.70;;;5.30;99.90;;;;;;5097897;28;20022;-77
2022/10/27 03:10:40;;;;;;;87.72;38.35;;;5.40;99.90;;;;;;5113745;28;20024;-77
2022/10/27 03:13:05;;;;;;;66.38;32.70;;;5.50;99.90;;;;;;5103398;28;20016;-85
2022/10/27 03:15:31;;;;;;;74.55;35.20;;;5.60;99.90;;;;;;5093489;28;20099;-78
2022/10/27 03:17:57;;;;;;;80.45;37.83;;;5.60;99.90;;;;;;5093371;28;20067;-77
2022/10/27 03:20:22;;;;;;;81.68;36.55;;;5.70;99.90;;;;;;5093434;28;20051;-85
2022/10/27 03:22:48;;;;;;;71.88;36.00;;;5.70;99.90;;;;;;5092175;28;20040;-84
2022/10/27 03:25:14;;;;;;;68.82;36.67;;;5.70;99.90;;;;;;5094948;28;20047;-85
2022/10/27 03:27:41;;;;;;;74.60;35.28;;;5.80;99.90;;;;;;5097403;28;20020;-85
2022/10/27 03:30:10;;;;;;;86.40;38.38;;;5.80;99.90;;;;;;5097535;28;20428;-77
2022/10/27 03:32:36;;;;;;;101.68;42.25;;;5.80;99.90;;;;;;5095850;28;20500;-77
2022/10/27 03:35:01;;;;;;;109.72;44.40;;;5.90;99.90;;;;;;5114126;28;20015;-77
2022/10/27 03:37:27;;;;;;;112.57;42.95;;;6.00;99.90;;;;;;5116309;28;20465;-86
2022/10/27 03:39:52;;;;;;;96.18;42.60;;;6.00;99.90;;;;;;5133264;27;20135;-86
2022/10/27 03:42:18;;;;;;;201.95;52.30;;;6.10;99.90;;;;;;5116164;28;20023;-80
2022/10/27 03:44:44;;;;;;;199.07;51.88;;;6.10;99.90;;;;;;5116316;28;20030;-84
2022/10/27 03:47:09;;;;;;;332.13;74.55;;;6.20;99.90;;;;;;5117467;28;20145;-84
2022/10/27 03:49:35;;;;;;;283.73;60.88;;;6.30;99.90;;;;;;5133422;27;20529;-77
2022/10/27 03:52:01;;;;;;;262.10;61.22;;;6.40;99.90;;;;;;5116201;28;20024;-84
2022/10/27 03:54:30;;;;;;;141.85;48.63;;;6.40;99.90;;;;;;5133301;27;20030;-85
2022/10/27 03:56:56;;;;;;;135.88;51.10;;;6.40;99.90;;;;;;5110381;28;20023;-78
2022/10/27 03:59:21;;;;;;;210.65;55.80;;;6.40;99.90;;;;;;5095712;28;20512;-85
2022/10/27 04:01:47;;;;;;;249.65;60.03;;;6.50;99.90;;;;;;5096917;28;20032;-77
2022/10/27 04:04:13;;;;;;;366.23;69.00;;;6.50;99.90;;;;;;5096706;28;20401;-77
2022/10/27 04:06:38;;;;;;;417.90;73.72;;;6.50;99.90;;;;;;5095670;28;20508;-86
2022/10/27 04:09:04;;;;;;;392.10;74.53;;;6.60;99.90;;;;;;5096568;28;20538;-78
2022/10/27 04:11:30;;;;;;;448.25;82.30;;;6.70;99.90;;;;;;5095349;28;20553;-77
2022/10/27 04:13:55;;;;;;;537.67;89.93;;;6.80;99.90;;;;;;5096375;28;20031;-77
2022/10/27 04:16:21;;;;;;;335.55;64.57;;;6.80;99.90;;;;;;5103610;28;20031;-77
2022/10/27 04:18:47;;;;;;;493.55;81.85;;;7.00;99.90;;;;;;5115423;28;20389;-85
2022/10/27 04:21:13;;;;;;;481.38;75.78;;;7.00;99.90;;;;;;5116686;28;20034;-84
2022/10/27 04:23:39;;;;;;;487.10;76.40;;;7.00;99.90;;;;;;5115312;28;20050;-78
2022/10/27 04:26:05;;;;;;;479.40;84.38;;;7.10;99.90;;;;;;5116241;28;20028;-83
2022/10/27 04:28:30;;;;;;;498.38;81.05;;;7.20;99.90;;;;;;5115330;28;20027;-78
2022/10/27 04:30:56;;;;;;;313.55;57.63;;;7.20;99.90;;;;;;5116443;28;20024;-77
2022/10/27 04:33:21;;;;;;;344.15;64.15;;;7.20;99.90;;;;;;5112108;28;20020;-78
2022/10/27 04:35:47;;;;;;;330.33;59.28;;;7.30;99.90;;;;;;5094376;28;20054;-85
2022/10/27 04:38:13;;;;;;;551.75;92.45;;;7.40;99.90;;;;;;5095852;28;20020;-78
2022/10/27 04:40:38;;;;;;;383.48;65.60;;;7.40;99.90;;;;;;5094826;28;20032;-78
2022/10/27 04:43:05;;;;;;;575.55;93.78;;;7.40;99.90;;;;;;5095486;28;20042;-85
2022/10/27 04:45:32;;;;;;;234.43;50.08;;;7.50;99.90;;;;;;5100764;28;20024;-77
2022/10/27 04:47:57;;;;;;;335.50;61.67;;;7.50;99.90;;;;;;5112234;28;20492;-77
2022/10/27 04:50:23;;;;;;;234.50;50.53;;;7.60;99.90;;;;;;5100940;28;20035;-84
2022/10/27 04:52:59;;;;;;;458.20;69.30;;;7.70;99.90;;;;;;5107503;28;20372;-78
2022/10/27 04:55:26;;;;;;;541.03;82.43;;;7.70;99.90;;;;;;5111137;28;20089;-77
2022/10/27 04:57:53;;;;;;;687.10;101.20;;;7.70;99.90;;;;;;5115638;28;20482;-78
2022/10/27 05:00:19;;;;;;;317.80;60.75;;;7.80;99.90;;;;;;5096698;28;20044;-85
2022/10/27 05:02:44;;;;;;;446.13;70.60;;;7.80;99.90;;;;;;5101846;28;20043;-85
2022/10/27 05:05:10;;;;;;;446.27;72.68;;;7.80;99.90;;;;;;5095173;28;20031;-85
2022/10/27 05:07:36;;;;;;;518.75;75.95;;;7.80;99.90;;;;;;5110226;28;20032;-78
2022/10/27 05:10:01;;;;;;;326.73;53.22;;;7.90;99.90;;;;;;5114311;28;20832;-77
2022/10/27 05:12:27;;;;;;;397.67;68.47;;;7.80;99.90;;;;;;5101588;28;20103;-77
2022/10/27 05:14:53;;;;;;;581.45;86.35;;;7.90;99.90;;;;;;5114673;28;20042;-77
2022/10/27 05:17:18;;;;;;;598.45;92.72;;;7.90;99.90;;;;;;5109642;28;20081;-77
2022/10/27 05:19:44;;;;;;;573.80;81.63;;;7.90;99.90;;;;;;5116021;28;20392;-77
2022/10/27 05:22:09;;;;;;;501.67;73.82;;;8.00;99.90;;;;;;5115152;28;20024;-86
2022/10/27 05:24:35;;;;;;;485.63;80.20;;;8.00;99.90;;;;;;5130965;27;20039;-85
2022/10/27 05:27:01;;;;;;;444.65;69.00;;;8.00;99.90;;;;;;5114947;28;20043;-77
2022/10/27 05:29:26;;;;;;;649.85;94.68;;;8.00;99.90;;;;;;5113684;28;20027;-77
2022/10/27 05:31:52;;;;;;;399.42;63.92;;;8.00;99.90;;;;;;5125088;27;20385;-88
2022/10/27 05:34:18;;;;;;;267.50;48.38;;;8.10;99.90;;;;;;5125911;27;20032;-78
2022/10/27 05:36:43;;;;;;;303.25;58.22;;;8.10;99.90;;;;;;5099713;28;20020;-86
2022/10/27 05:39:09;;;;;;;603.20;92.70;;;8.10;99.90;;;;;;5113591;28;20051;-85
2022/10/27 05:41:35;;;;;;;663.60;98.25;;;8.10;99.90;;;;;;5110280;28;20370;-78
2022/10/27 05:44:00;;;;;;;269.80;48.92;;;8.10;99.90;;;;;;5092128;28;20512;-80
2022/10/27 05:46:26;;;;;;;564.35;83.75;;;8.10;99.90;;;;;;5091697;28;20071;-85
2022/10/27 05:48:51;;;;;;;540.50;80.18;;;8.10;99.90;;;;;;5094395;28;20165;-86
2022/10/27 05:51:17;;;;;;;487.33;77.05;;;8.10;99.90;;;;;;5094099;28;20101;-87
2022/10/27 05:53:43;;;;;;;467.75;70.88;;;8.10;99.90;;;;;;5094509;28;20028;-88
2022/10/27 05:56:08;;;;;;;499.45;74.50;;;8.20;99.90;;;;;;5094535;28;20099;-79
2022/10/27 05:58:34;;;;;;;600.92;95.68;;;8.20;99.90;;;;;;5092366;28;20032;-78
2022/10/27 06:00:59;;;;;;;568.47;86.80;;;8.20;99.90;;;;;;5108003;28;20020;-88
2022/10/27 06:03:25;;;;;;;497.08;77.82;;;8.20;99.90;;;;;;5090310;28;20046;-86
2022/10/27 06:05:52;;;;;;;521.92;78.57;;;8.30;99.90;;;;;;5091456;28;20043;-87
2022/10/27 06:08:18;;;;;;;351.23;63.72;;;8.30;99.90;;;;;;5091125;28;20028;-87
2022/10/27 06:10:45;;;;;;;403.25;69.28;;;8.30;99.90;;;;;;5091019;28;20524;-88
2022/10/27 06:13:15;;;;;;;514.33;89.70;;;8.30;99.90;;;;;;5099089;28;20044;-77
2022/10/27 06:15:41;;;;;;;435.08;76.13;;;8.30;99.90;;;;;;5089581;28;20024;-87
2022/10/27 06:18:07;;;;;;;529.50;90.13;;;8.40;99.90;;;;;;5107888;28;20016;-87
2022/10/27 06:20:33;;;;;;;424.42;79.90;;;8.40;99.90;;;;;;5090110;28;20427;-88
2022/10/27 06:22:59;;;;;;;454.70;77.53;;;8.50;99.90;;;;;;5092002;28;20032;-86
2022/10/27 06:25:25;;;;;;;580.13;104.90;;;8.40;99.90;;;;;;5093981;28;20024;-77
2022/10/27 06:27:50;;;;;;;418.27;82.40;;;8.40;99.90;;;;;;5092597;28;20505;-85
2022/10/27 06:30:16;;;;;;;516.33;94.10;;;8.50;99.90;;;;;;5092513;28;20095;-77
2022/10/27 06:32:42;;;;;;;351.08;73.78;;;8.50;99.90;;;;;;5090868;28;20050;-86
2022/10/27 06:35:09;;;;;;;556.58;100.70;;;8.50;99.90;;;;;;5111630;28;20039;-87
2022/10/27 06:37:43;;;;;;;572.78;99.13;;;8.50;99.90;;;;;;5110443;28;20051;-77
2022/10/27 06:40:11;;;;;;;553.88;93.50;;;8.50;99.90;;;;;;5113310;28;20484;-88
2022/10/27 06:42:37;;;;;;;458.02;80.00;;;8.50;99.90;;;;;;5112944;28;20088;-89
2022/10/27 06:45:04;;;;;;;446.10;76.68;;;8.50;99.90;;;;;;5129422;27;20047;-88
2022/10/27 06:47:31;;;;;;;387.38;68.10;;;8.50;99.90;;;;;;5113954;28;20044;-88
2022/10/27 06:49:58;;;;;;;411.77;77.38;;;8.50;99.90;;;;;;5113910;28;20049;-77
2022/10/27 06:52:24;;;;;;;513.90;84.53;;;8.50;99.90;;;;;;5112732;28;20438;-77
2022/10/27 06:54:49;;;;;;;431.35;73.32;;;8.50;99.90;;;;;;5112759;28;20020;-77
2022/10/27 06:57:15;;;;;;;365.23;68.90;;;8.50;99.90;;;;;;5112513;28;20031;-77
2022/10/27 06:59:40;;;;;;;447.48;77.07;;;8.50;99.90;;;;;;5111993;28;20081;-88
2022/10/27 07:02:08;;;;;;;509.83;88.38;;;8.50;99.90;;;;;;5113848;28;20030;-86
2022/10/27 07:04:34;;;;;;;356.50;64.20;;;8.50;99.90;;;;;;5112427;28;20476;-77
2022/10/27 07:07:00;;;;;;;501.10;88.80;;;8.50;99.90;;;;;;5095552;28;20024;-77
2022/10/27 07:09:25;;;;;;;319.50;69.25;;;8.50;99.90;;;;;;5113406;28;20038;-78
2022/10/27 07:11:51;;;;;;;310.15;64.07;;;8.60;99.90;;;;;;5112553;28;20551;-84
2022/10/27 07:14:16;;;;;;;405.35;72.97;;;8.60;99.90;;;;;;5093382;28;20047;-89
2022/10/27 07:16:42;;;;;;;332.15;63.33;;;8.60;99.90;;;;;;5093357;28;20027;-77
2022/10/27 07:19:07;;;;;;;433.10;73.00;;;8.60;99.90;;;;;;5093338;28;20481;-84
2022/10/27 07:21:33;;;;;;;415.73;76.30;;;8.60;99.90;;;;;;5093259;28;20495;-86
2022/10/27 07:23:59;;;;;;;288.38;55.97;;;8.70;99.90;;;;;;5092062;28;20478;-77
2022/10/27 07:26:24;;;;;;;318.40;62.05;;;8.70;99.90;;;;;;5108779;28;20020;-77
2022/10/27 07:28:50;;;;;;;273.30;55.30;;;8.70;99.90;;;;;;5093216;28;20027;-89
2022/10/27 07:31:15;;;;;;;156.73;42.60;;;8.70;99.90;;;;;;5093145;28;20032;-86
2022/10/27 07:33:41;;;;;;;254.98;54.70;;;8.70;99.90;;;;;;5101236;28;20028;-78
2022/10/27 07:36:07;;;;;;;275.55;56.67;;;8.70;99.90;;;;;;5111772;28;20028;-77
2022/10/27 07:38:34;;;;;;;411.33;71.68;;;8.70;99.90;;;;;;5129186;28;20086;-88
2022/10/27 07:40:59;;;;;;;226.57;54.08;;;8.70;99.90;;;;;;5113387;28;20411;-77
2022/10/27 07:43:25;;;;;;;219.60;51.92;;;8.70;99.90;;;;;;5112179;28;20028;-87
2022/10/27 07:45:51;;;;;;;274.67;57.42;;;8.70;99.90;;;;;;5111713;28;20051;-86
2022/10/27 07:48:17;;;;;;;299.70;61.53;;;8.70;99.90;;;;;;5113340;28;20103;-77
2022/10/27 07:50:43;;;;;;;348.63;65.90;;;8.70;99.90;;;;;;5111986;28;20032;-88
2022/10/27 07:53:09;;;;;;;246.00;55.60;;;8.80;99.90;;;;;;5113527;28;20016;-89
2022/10/27 07:55:36;;;;;;;254.48;53.10;;;8.80;99.90;;;;;;5113678;28;20028;-78
2022/10/27 07:58:10;;;;;;;134.43;43.97;;;8.80;99.90;;;;;;5111924;28;20020;-78
2022/10/27 08:00:38;;;;;;;224.23;48.70;;;8.90;99.90;;;;;;5113597;28;20020;-77
2022/10/27 08:03:06;;;;;;;244.10;53.75;;;8.90;99.90;;;;;;5111976;28;20481;-77
2022/10/27 08:05:34;;;;;;;213.50;50.65;;;8.90;99.90;;;;;;5113455;28;20381;-77
2022/10/27 08:08:02;;;;;;;270.20;53.60;;;9.00;99.90;;;;;;5112152;28;20507;-89
2022/10/27 08:10:29;;;;;;;270.08;53.63;;;9.00;99.90;;;;;;5114888;28;20030;-78
2022/10/27 08:12:55;;;;;;;204.30;51.25;;;9.10;99.90;;;;;;5115564;28;20023;-78
2022/10/27 08:15:21;;;;;;;173.13;44.38;;;9.10;99.90;;;;;;5117120;28;20026;-77
2022/10/27 08:18:00;;;;;;;222.35;48.42;;;9.10;99.90;;;;;;5115888;28;20362;-88
2022/10/27 08:20:30;;;;;;;166.40;41.70;;;9.10;99.90;;;;;;5115889;28;20115;-77
2022/10/27 08:23:00;;;;;;;210.60;51.85;;;9.10;99.90;;;;;;5115718;28;20042;-77
2022/10/27 08:25:26;;;;;;;160.10;42.35;;;9.10;99.90;;;;;;5117081;28;20051;-77
2022/10/27 08:27:52;;;;;;;192.95;43.75;;;9.20;99.90;;;;;;5116830;28;20028;-88
2022/10/27 08:30:19;;;;;;;127.82;39.88;;;9.20;99.90;;;;;;5115616;28;20066;-77
2022/10/27 08:32:44;;;;;;;109.82;37.38;;;9.30;99.90;;;;;;5115023;28;20024;-78
2022/10/27 08:35:10;;;;;;;101.60;37.35;;;9.30;99.90;;;;;;5112150;28;20012;-89
2022/10/27 08:37:35;;;;;;;121.65;38.50;;;9.40;99.90;;;;;;5096392;28;20373;-79
2022/10/27 08:40:01;;;;;;;102.07;36.25;;;9.50;99.90;;;;;;5096464;28;20051;-90
2022/10/27 08:42:58;;;;;;;122.15;38.70;;;9.50;99.90;;;;;;5094795;28;20035;-78
2022/10/27 08:45:36;;;;;;;89.40;35.67;;;9.50;99.90;;;;;;5095121;28;20544;-78
2022/10/27 08:48:02;;;;;;;98.72;38.00;;;9.60;99.90;;;;;;5094830;28;20549;-89
2022/10/27 08:50:36;;;;;;;98.43;37.25;;;9.60;99.90;;;;;;5111841;28;20119;-77
2022/10/27 08:53:04;;;;;;;97.53;38.05;;;9.70;99.90;;;;;;5095002;28;20381;-89
2022/10/27 08:55:51;;;;;;;96.18;36.55;;;9.70;99.90;;;;;;5094734;28;20382;-88
2022/10/27 08:58:37;;;;;;;91.88;37.58;;;9.80;99.90;;;;;;5095742;28;20044;-78
2022/10/27 09:01:18;;;;;;;103.90;39.33;;;9.90;99.90;;;;;;5095809;28;20082;-78
2022/10/27 09:04:01;;;;;;;96.38;37.53;;;10.00;99.90;;;;;;5095621;28;20040;-77
2022/10/27 09:06:47;;;;;;;84.13;36.20;;;10.10;99.90;;;;;;5111722;28;20020;-78
2022/10/27 09:09:23;;;;;;;72.50;31.30;;;10.20;99.90;;;;;;5094633;28;20028;-78
2022/10/27 09:11:57;;;;;;;102.28;38.22;;;10.20;99.90;;;;;;5092648;28;20065;-88
2022/10/27 09:14:54;;;;;;;78.55;32.47;;;10.20;99.90;;;;;;5094558;28;20540;-88
2022/10/27 09:17:26;;;;;;;85.55;35.83;;;10.30;99.90;;;;;;5095606;28;20020;-78
2022/10/27 09:20:14;;;;;;;;;;;10.40;99.90;;;;;;5094758;28;20047;-89
2022/10/27 09:22:41;;;;;;;87.70;34.88;;;10.40;99.90;;;;;;5094109;28;19904;-89
2022/10/27 09:25:17;;;;;;;83.45;39.90;;;10.50;99.90;;;;;;5094205;28;20028;-77
2022/10/27 09:27:44;;;;;;;90.93;33.53;;;10.50;99.90;;;;;;5111115;28;20018;-77
2022/10/27 09:30:12;;;;;;;86.82;36.40;;;10.60;99.90;;;;;;5095365;28;20069;-78
2022/10/27 09:32:41;;;;;;;95.95;40.10;;;10.70;99.90;;;;;;5110934;28;20423;-77
2022/10/27 09:35:12;;;;;;;92.50;36.80;;;10.70;99.90;;;;;;5075079;28;20024;-78
2022/10/27 09:37:40;;;;;;;78.28;32.22;;;10.90;99.90;;;;;;5073556;28;20021;-88
2022/10/27 09:40:14;;;;;;;81.00;34.28;;;10.90;99.90;;;;;;5074970;28;20052;-78
2022/10/27 09:42:40;;;;;;;84.65;37.17;;;10.90;99.90;;;;;;5074710;28;20112;-77
2022/10/27 09:45:21;;;;;;;78.68;35.42;;;11.00;99.90;;;;;;5073583;28;20401;-88
2022/10/27 09:47:53;;;;;;;81.85;36.92;;;11.00;99.90;;;;;;5074877;28;20028;-77
2022/10/27 09:50:27;;;;;;;80.57;35.95;;;11.10;99.90;;;;;;5073399;28;20485;-78
2022/10/27 09:52:53;;;;;;;81.43;37.22;;;11.10;99.90;;;;;;5074756;28;20017;-89
2022/10/27 09:55:19;;;;;;;75.65;36.35;;;11.20;99.90;;;;;;5074686;28;20017;-89
2022/10/27 09:57:48;;;;;;;70.70;33.08;;;11.20;99.90;;;;;;5073310;28;20019;-88
2022/10/27 10:00:14;;;;;;;83.22;36.88;;;11.30;99.90;;;;;;5073176;28;20028;-78
2022/10/27 10:02:54;;;;;;;72.45;34.75;;;11.40;99.90;;;;;;5073179;28;20085;-89
2022/10/27 10:05:25;;;;;;;71.88;34.17;;;11.50;99.90;;;;;;5073176;28;20028;-89
2022/10/27 10:07:53;;;;;;;64.82;32.00;;;11.60;99.90;;;;;;5074270;28;20028;-77
2022/10/27 10:10:28;;;;;;;68.50;33.40;;;11.80;99.90;;;;;;5074428;28;20020;-77
2022/10/27 10:13:03;;;;;;;69.45;32.00;;;12.00;99.90;;;;;;5084852;28;20531;-89
2022/10/27 10:15:31;;;;;;;70.15;34.80;;;12.10;99.90;;;;;;5093519;28;20492;-88
2022/10/27 10:18:01;;;;;;;73.53;35.83;;;12.10;99.90;;;;;;5092849;28;20024;-88
2022/10/27 10:20:32;;;;;;;67.53;32.90;;;12.10;99.90;;;;;;5094419;28;20050;-88
2022/10/27 10:23:06;;;;;;;70.85;32.33;;;12.30;99.90;;;;;;5094175;28;20040;-77
2022/10/27 10:25:40;;;;;;;69.68;32.47;;;12.40;99.90;;;;;;5086068;28;20036;-90
2022/10/27 10:28:06;;;;;;;70.03;36.42;;;12.50;99.90;;;;;;5099377;28;20496;-88
2022/10/27 10:30:34;;;;;;;55.67;28.88;;;12.60;99.90;;;;;;5104567;28;20028;-89
2022/10/27 10:33:03;;;;;;;53.00;29.65;;;12.70;99.90;;;;;;5097476;28;20008;-87
2022/10/27 10:35:44;;;;;;;55.95;30.85;;;12.80;99.90;;;;;;5084556;28;20028;-77
2022/10/27 10:38:18;;;;;;;55.55;29.48;;;12.80;99.90;;;;;;5084008;28;20855;-78
2022/10/27 10:41:17;;;;;;;54.58;29.52;;;12.90;99.90;;;;;;5089694;28;20040;-78
2022/10/27 10:43:43;;;;;;;56.35;29.77;;;13.00;99.90;;;;;;5098122;28;20159;-78
2022/10/27 10:46:23;;;;;;;50.45;29.73;;;13.10;99.90;;;;;;5109169;28;20118;-85
2022/10/27 10:48:55;;;;;;;49.42;26.85;;;13.20;99.90;;;;;;5109451;28;20019;-86
2022/10/27 10:51:33;;;;;;;45.95;25.45;;;13.30;99.90;;;;;;5106591;28;20020;-78
2022/10/27 10:54:13;;;;;;;48.17;27.25;;;13.40;99.90;;;;;;5113873;28;20377;-77
2022/10/27 10:56:39;;;;;;;47.65;26.52;;;13.40;99.90;;;;;;5113866;28;20021;-78
2022/10/27 10:59:14;;;;;;;47.58;25.33;;;13.60;99.90;;;;;;5108380;28;20020;-78
2022/10/27 11:02:20;;;;;;;48.75;24.75;;;13.70;99.90;;;;;;5107563;28;20099;-94
2022/10/27 11:04:46;;;;;;;49.85;24.85;;;13.80;99.90;;;;;;5086828;28;20082;-78
2022/10/27 11:07:14;;;;;;;37.60;21.10;;;13.90;99.90;;;;;;5103621;28;20035;-94
2022/10/27 11:10:03;;;;;;;40.38;25.10;;;14.00;99.90;;;;;;5099159;28;20556;-95
2022/10/27 11:12:40;;;;;;;36.35;20.95;;;14.10;99.90;;;;;;5113319;27;20032;-78
2022/10/27 11:15:18;;;;;;;40.92;21.23;;;14.20;99.90;;;;;;5106167;28;20055;-95
2022/10/27 11:17:49;;;;;;;33.42;19.88;;;14.20;99.90;;;;;;5109786;28;20019;-78
2022/10/27 11:20:34;;;;;;;33.70;21.10;;;14.40;99.90;;;;;;5100196;28;20024;-93
2022/10/27 11:23:14;;;;;;;34.55;18.30;;;14.50;99.90;;;;;;5101212;28;20118;-78
2022/10/27 11:25:41;;;;;;;28.00;18.33;;;14.50;99.90;;;;;;5098718;28;20380;-78
2022/10/27 11:28:33;;;;;;;31.92;18.17;;;14.60;99.90;;;;;;5113306;28;20028;-93
2022/10/27 11:31:08;;;;;;;32.53;18.42;;;14.70;99.90;;;;;;5113635;28;20057;-94
2022/10/27 11:33:50;;;;;;;28.33;16.13;;;14.80;99.90;;;;;;5105891;28;20477;-94
2022/10/27 11:36:28;;;;;;;48.42;27.20;;;14.90;99.90;;;;;;5129319;28;20030;-94
2022/10/27 11:39:07;;;;;;;33.08;20.00;;;15.00;99.90;;;;;;5112878;28;20123;-94
2022/10/27 11:41:54;;;;;;;33.40;19.73;;;15.10;99.90;;;;;;5101713;28;20366;-79
2022/10/27 11:44:34;;;;;;;48.75;30.50;;;15.20;99.90;;;;;;5110474;28;20122;-91
2022/10/27 11:46:59;;;;;;;24.42;16.60;;;15.30;99.90;;;;;;5100881;28;20032;-92
2022/10/27 11:49:50;;;;;;;35.33;19.17;;;15.30;99.90;;;;;;5105849;28;20040;-78
2022/10/27 11:52:25;;;;;;;42.47;19.58;;;15.40;99.90;;;;;;5115570;28;20362;-93
2022/10/27 11:54:52;;;;;;;32.33;17.88;;;15.50;99.90;;;;;;5117446;28;20485;-78
2022/10/27 11:58:23;;;;;;;28.48;18.58;;;15.50;99.90;;;;;;5133249;27;20022;-92
2022/10/27 12:01:03;;;;;;;25.80;14.73;;;15.60;99.90;;;;;;5074793;28;20041;-78
2022/10/27 12:03:58;;;;;;;29.08;17.63;;;15.70;99.90;;;;;;5068698;28;20040;-78
2022/10/27 12:06:31;;;;;;;30.60;16.48;;;15.70;99.90;;;;;;5097892;28;20040;-93
2022/10/27 12:09:29;;;;;;;27.38;15.73;;;15.80;99.90;;;;;;5103281;28;20411;-91
2022/10/27 12:12:17;;;;;;;30.33;16.27;;;15.80;99.90;;;;;;5106297;28;20069;-78
2022/10/27 12:15:16;;;;;;;26.92;16.15;;;15.90;99.90;;;;;;5091604;28;20039;-79
2022/10/27 12:18:10;;;;;;;31.77;17.13;;;16.00;99.90;;;;;;5090852;28;20047;-93
2022/10/27 12:20:35;;;;;;;24.63;14.70;;;16.00;99.90;;;;;;5085689;28;20784;-93
2022/10/27 12:23:07;;;;;;;34.75;17.55;;;16.00;99.90;;;;;;5094850;28;20043;-90
2022/10/27 12:25:48;;;;;;;37.47;17.73;;;16.10;99.90;;;;;;5131906;27;20372;-91
2022/10/27 12:28:15;;;;;;;34.50;16.65;;;16.10;99.90;;;;;;5111043;28;20035;-94
2022/10/27 12:30:44;;;;;;;30.92;16.88;;;16.20;99.90;;;;;;5112167;28;20100;-94
2022/10/27 12:33:23;;;;;;;31.23;15.75;;;16.20;99.90;;;;;;5111404;28;20028;-93
2022/10/27 12:36:24;;;;;;;27.27;14.32;;;16.20;99.90;;;;;;5110662;28;20024;-78
2022/10/27 12:39:17;;;;;;;24.92;14.35;;;16.30;99.90;;;;;;5111021;28;20515;-78
2022/10/27 12:42:01;;;;;;;26.02;14.98;;;16.40;99.90;;;;;;5105295;28;20055;-79
2022/10/27 12:45:02;;;;;;;22.83;13.43;;;16.40;99.90;;;;;;5101954;28;20088;-93
2022/10/27 12:47:38;;;;;;;21.98;11.20;;;16.40;99.90;;;;;;5101620;28;20074;-79
2022/10/27 12:50:32;;;;;;;19.05;11.02;;;16.50;99.90;;;;;;5104212;28;20019;-94